Time;durP1;ratioP1;P1;durP2;ratioP2;P2;SDS_P1;SDS_P2;PMS_P1;PMS_P2;Temp;Humidity;BMP_temperature;BMP_pressure;BME280_temperature;BME280_humidity;BME280_pressure;Samples;Min_cycle;Max_cycle;Signal;HPM_P1;HPM_P2
2022/07/01 10:34:13;;;;;;;0.2;0.2;;;;;;;16.59;85.15234;940.5422;;;;
2022/07/01 10:37:58;;;;;;;0.1;0.1;;;;;;;16.37;86.15039;940.7498;;;;
2022/07/01 10:40:30;;;;;;;0.3;0.1;;;;;;;16.3;86.55273;940.7938;;;;
2022/07/01 10:42:56;;;;;;;0.2;0.2;;;;;;;16.23;86.25098;940.7374;;;;
2022/07/01 10:45:24;;;;;;;0.6;0.3;;;;;;;16.1;86.8623;940.7356;;;;
2022/07/01 10:47:50;;;;;;;0.2;0.1;;;;;;;15.86;88.30469;940.7556;;;;
2022/07/01 10:50:24;;;;;;;0.2;0.1;;;;;;;15.8;89.38965;940.8135;;;;
2022/07/01 10:52:55;;;;;;;1.1;0.2;;;;;;;15.93;88.72266;940.7761;;;;
2022/07/01 10:55:28;;;;;;;0.2;0.2;;;;;;;15.82;89.53223;940.8627;;;;
2022/07/01 10:57:58;;;;;;;0.1;0.1;;;;;;;15.88;89.39551;940.8984;;;;
2022/07/01 11:00:30;;;;;;;0.4;0.2;;;;;;;15.83;88.92383;940.959;;;;
2022/07/01 11:03:01;;;;;;;0.3;0.3;;;;;;;15.86;88.61719;941.0295;;;;
2022/07/01 11:05:38;;;;;;;1;0.5;;;;;;;15.84;89.63965;940.9894;;;;
2022/07/01 11:08:03;;;;;;;0.2;0.2;;;;;;;15.89;89.24512;940.9931;;;;
2022/07/01 11:10:30;;;;;;;0.7;0.5;;;;;;;15.81;89.01074;941.0503;;;;
2022/07/01 11:12:56;;;;;;;2;1.5;;;;;;;15.87;89.13867;941.1322;;;;
2022/07/01 11:15:24;;;;;;;0.6;0.4;;;;;;;15.82;89.09473;941.0939;;;;
2022/07/01 11:17:51;;;;;;;0.2;0.2;;;;;;;15.63;89.66699;941.045;;;;
2022/07/01 11:20:23;;;;;;;0.8;0.2;;;;;;;15.58;90.46582;941.1306;;;;
2022/07/01 11:22:48;;;;;;;0.2;0.2;;;;;;;15.52;91.2041;941.1477;;;;
2022/07/01 11:25:17;;;;;;;0.6;0.6;;;;;;;15.49;92.41309;941.0812;;;;
2022/07/01 11:27:41;;;;;;;0.5;0.4;;;;;;;15.24;92.87695;941.0829;;;;
2022/07/01 11:30:16;;;;;;;3.4;2.2;;;;;;;15.38;92.93066;941.0959;;;;
2022/07/01 11:32:41;;;;;;;2.6;1.6;;;;;;;15.28;92.55176;941.0667;;;;
2022/07/01 11:39:21;;;;;;;0.3;0.3;;;;;;;15.39;92.62109;941.067;;;;
2022/07/01 11:40:06;;;;;;;2.2;2;;;;;;;15.38;92.98828;941.124;;;;
2022/07/01 11:42:31;;;;;;;1.1;1;;;;;;;15.25;93.06348;941.1655;;;;
2022/07/01 11:44:59;;;;;;;0.3;0.3;;;;;;;15.21;92.61719;941.1317;;;;
2022/07/01 11:47:28;;;;;;;0.5;0.2;;;;;;;15.05;92.95215;941.2717;;;;
2022/07/01 11:49:58;;;;;;;1.4;0.7;;;;;;;14.91;94.27246;941.6174;;;;
2022/07/01 11:52:29;;;;;;;0.6;0.6;;;;;;;14.9;96.0332;941.8236;;;;
2022/07/01 11:54:54;;;;;;;0.4;0.3;;;;;;;14.93;95.55664;941.8058;;;;
2022/07/01 11:57:26;;;;;;;2;0.8;;;;;;;14.77;97.90723;941.7336;;;;
2022/07/01 11:59:54;;;;;;;1.6;1.5;;;;;;;15.02;97.05273;941.5847;;;;
2022/07/01 12:02:19;;;;;;;1.9;1.2;;;;;;;14.96;97.00391;941.5789;;;;
2022/07/01 12:04:45;;;;;;;1.4;1.3;;;;;;;14.98;96.67383;941.6238;;;;
2022/07/01 12:07:14;;;;;;;0.6;0.6;;;;;;;14.88;96.40039;941.6608;;;;
2022/07/01 12:09:48;;;;;;;0.9;0.9;;;;;;;14.93;96.57129;941.6887;;;;
2022/07/01 12:12:15;;;;;;;1;0.7;;;;;;;15.11;96.57715;941.7969;;;;
2022/07/01 12:14:48;;;;;;;0.8;0.8;;;;;;;15;96.53027;941.8979;;;;
2022/07/01 12:17:21;;;;;;;1.7;1.6;;;;;;;14.86;97.29395;941.9551;;;;
2022/07/01 12:19:48;;;;;;;0.8;0.5;;;;;;;15.01;96.6582;941.9604;;;;
2022/07/01 12:22:13;;;;;;;0.9;0.6;;;;;;;15.02;96.68164;942.0048;;;;
2022/07/01 12:24:44;;;;;;;0.9;0.6;;;;;;;15.04;96.05371;942.0289;;;;
2022/07/01 12:27:09;;;;;;;0.6;0.6;;;;;;;15.21;95.52734;942.0237;;;;
2022/07/01 12:29:38;;;;;;;1;0.7;;;;;;;15.33;95.4707;941.9026;;;;
2022/07/01 12:32:04;;;;;;;0.5;0.5;;;;;;;15.47;93.30762;941.932;;;;
2022/07/01 12:34:29;;;;;;;1;1;;;;;;;15.3;92.72852;942.0061;;;;
2022/07/01 12:36:54;;;;;;;0.6;0.6;;;;;;;15.41;92.17383;942.0997;;;;
2022/07/01 12:39:20;;;;;;;0.3;0.3;;;;;;;15.64;90.55859;942.1817;;;;
2022/07/01 12:41:45;;;;;;;0.6;0.3;;;;;;;15.52;86.85156;942.2361;;;;
2022/07/01 12:44:16;;;;;;;0.6;0.4;;;;;;;15.51;89.09961;942.2594;;;;
2022/07/01 12:46:43;;;;;;;1.9;1.7;;;;;;;15.45;91.33887;942.1721;;;;
2022/07/01 12:49:08;;;;;;;1.4;1.3;;;;;;;15.55;91.89063;942.2802;;;;
2022/07/01 12:51:40;;;;;;;1.4;1.3;;;;;;;15.51;93.01465;942.2723;;;;
2022/07/01 12:54:10;;;;;;;1.1;0.9;;;;;;;15.62;92.86523;942.2469;;;;
2022/07/01 12:56:36;;;;;;;0.3;0.3;;;;;;;15.74;92.19629;942.2191;;;;
2022/07/01 12:59:05;;;;;;;0.6;0.6;;;;;;;15.78;91.47754;941.9796;;;;
2022/07/01 13:01:31;;;;;;;1.5;0.5;;;;;;;15.93;91.39453;941.8113;;;;
2022/07/01 13:03:56;;;;;;;1.7;0.8;;;;;;;15.71;93.95898;941.8265;;;;
2022/07/01 13:06:34;;;;;;;2.5;2.3;;;;;;;15.65;95.10254;941.9481;;;;
2022/07/01 13:08:59;;;;;;;1.2;1.2;;;;;;;15.66;93.82031;941.9489;;;;
2022/07/01 13:11:30;;;;;;;1;1;;;;;;;15.7;92.27148;941.9695;;;;
2022/07/01 13:14:00;;;;;;;1;0.6;;;;;;;15.71;89.9375;941.8956;;;;
2022/07/01 13:16:35;;;;;;;0.5;0.4;;;;;;;15.84;90.91309;941.7491;;;;
2022/07/01 13:19:00;;;;;;;0.4;0.4;;;;;;;16.02;90.78711;941.6721;;;;
2022/07/01 13:21:34;;;;;;;0.4;0.4;;;;;;;16.12;89.6416;941.7374;;;;
2022/07/01 13:24:02;;;;;;;0.5;0.4;;;;;;;16.18;87.59375;941.9218;;;;
2022/07/01 13:26:27;;;;;;;1.2;0.4;;;;;;;16.16;88.33008;942.0392;;;;
2022/07/01 13:28:52;;;;;;;0.5;0.4;;;;;;;15.96;89.23828;942.0071;;;;
2022/07/01 13:31:20;;;;;;;0.6;0.6;;;;;;;16;90.32227;942.0334;;;;
2022/07/01 13:33:45;;;;;;;0.8;0.7;;;;;;;15.94;89.11914;942.0481;;;;
2022/07/01 13:36:11;;;;;;;0.6;0.5;;;;;;;16.03;89.24121;942.1797;;;;
2022/07/01 13:38:36;;;;;;;1.5;0.4;;;;;;;16.12;88.43652;942.2467;;;;
2022/07/01 13:41:05;;;;;;;0.7;0.5;;;;;;;16.16;89.40625;942.3044;;;;
2022/07/01 13:43:31;;;;;;;0.5;0.5;;;;;;;16.22;89.44043;942.341;;;;
2022/07/01 13:45:59;;;;;;;1.3;0.8;;;;;;;16.27;89.55566;942.3828;;;;
2022/07/01 13:48:24;;;;;;;0.8;0.8;;;;;;;16.23;91.06152;942.4537;;;;
2022/07/01 13:50:54;;;;;;;1.6;1.5;;;;;;;16.15;91.21973;942.5527;;;;
2022/07/01 13:53:19;;;;;;;1.4;0.8;;;;;;;16.05;92.43652;942.4503;;;;
2022/07/01 13:55:49;;;;;;;0.7;0.7;;;;;;;16.05;91.75391;942.2776;;;;
2022/07/01 13:58:19;;;;;;;1.5;1.1;;;;;;;16.01;90.69238;942.0341;;;;
2022/07/01 14:00:50;;;;;;;1.3;0.8;;;;;;;16.04;90.05273;942.0969;;;;
2022/07/01 14:03:18;;;;;;;2.9;1.2;;;;;;;15.96;90.77539;942.4015;;;;
2022/07/01 14:05:46;;;;;;;3.1;1.3;;;;;;;15.87;91.94727;942.5834;;;;
2022/07/01 14:08:17;;;;;;;1.2;0.7;;;;;;;15.88;91.46387;942.5898;;;;
2022/07/01 14:10:51;;;;;;;2.3;0.6;;;;;;;15.76;92.49121;942.4655;;;;
2022/07/01 14:13:16;;;;;;;1.7;0.9;;;;;;;15.75;93.29785;942.4005;;;;
2022/07/01 14:15:51;;;;;;;1.5;1.4;;;;;;;15.55;93.08203;942.2424;;;;
2022/07/01 14:18:18;;;;;;;4.2;2.8;;;;;;;15.51;93.84863;941.9994;;;;
2022/07/01 14:20:50;;;;;;;2;1.1;;;;;;;15.62;93.92773;942.1272;;;;
2022/07/01 14:23:19;;;;;;;2.7;1.5;;;;;;;15.64;93.76953;942.4186;;;;
2022/07/01 14:25:45;;;;;;;2.2;1.6;;;;;;;15.63;94.76367;942.4113;;;;
2022/07/01 14:28:14;;;;;;;2.3;1;;;;;;;15.62;93.7793;942.5735;;;;
2022/07/01 14:30:39;;;;;;;1.4;0.7;;;;;;;15.73;92.70313;942.5892;;;;
2022/07/01 14:33:08;;;;;;;1;0.6;;;;;;;15.97;90.8584;942.6584;;;;
2022/07/01 14:35:34;;;;;;;2.8;0.9;;;;;;;16.01;90.0332;942.8503;;;;
2022/07/01 14:38:05;;;;;;;0.7;0.6;;;;;;;15.92;90.17676;943.0209;;;;
2022/07/01 14:40:32;;;;;;;1.7;0.8;;;;;;;16.12;93.08594;943.1;;;;
2022/07/01 14:43:04;;;;;;;1.8;1;;;;;;;16.23;91.29297;942.9986;;;;
2022/07/01 14:45:30;;;;;;;0.9;0.9;;;;;;;16.18;91.44727;943.0764;;;;
2022/07/01 14:48:00;;;;;;;1.6;1;;;;;;;16.18;91.44531;942.808;;;;
2022/07/01 14:50:26;;;;;;;1.5;1.1;;;;;;;16.21;91.4873;942.7484;;;;
2022/07/01 14:52:55;;;;;;;0.7;0.7;;;;;;;16.16;91.10645;942.6459;;;;
2022/07/01 14:55:21;;;;;;;1.5;0.8;;;;;;;16.21;91.01367;942.5315;;;;
2022/07/01 14:57:46;;;;;;;1.7;1.1;;;;;;;16.08;90.78906;942.3514;;;;
2022/07/01 15:00:21;;;;;;;0.9;0.9;;;;;;;16.18;91.21582;942.0094;;;;
2022/07/01 15:02:47;;;;;;;1.6;1.2;;;;;;;16.29;90.54199;941.7783;;;;
2022/07/01 15:05:13;;;;;;;1.4;0.7;;;;;;;16.31;90.01563;942.1013;;;;
2022/07/01 15:07:44;;;;;;;1.8;1.1;;;;;;;16.33;90.12402;942.6565;;;;
2022/07/01 15:10:15;;;;;;;2.2;1.5;;;;;;;16.43;92.64551;942.9528;;;;
2022/07/01 15:12:44;;;;;;;1.7;1.3;;;;;;;16.81;92.71289;942.6969;;;;
2022/07/01 15:15:09;;;;;;;1.2;1;;;;;;;17.11;88.99902;942.5494;;;;
2022/07/01 15:17:38;;;;;;;1.2;1;;;;;;;16.88;83.83008;942.5848;;;;
2022/07/01 15:20:09;;;;;;;2.8;1.2;;;;;;;17.22;86.67676;942.682;;;;
2022/07/01 15:22:35;;;;;;;0.9;0.8;;;;;;;17.48;85.41895;942.7517;;;;
2022/07/01 15:25:01;;;;;;;0.9;0.9;;;;;;;17.68;83.89063;942.7488;;;;
2022/07/01 15:27:26;;;;;;;0.9;0.7;;;;;;;17.41;81.93555;942.7634;;;;
2022/07/01 15:29:52;;;;;;;1.2;0.7;;;;;;;17.32;79.61035;942.6774;;;;
2022/07/01 15:32:18;;;;;;;0.4;0.4;;;;;;;17.5;80.51563;942.5559;;;;
2022/07/01 15:34:46;;;;;;;2.6;0.9;;;;;;;17.68;81.8252;942.6206;;;;
2022/07/01 15:37:11;;;;;;;2.5;0.8;;;;;;;17.88;82.02441;942.5211;;;;
2022/07/01 15:39:39;;;;;;;0.9;0.5;;;;;;;18.03;79.3916;942.5003;;;;
2022/07/01 15:42:04;;;;;;;0.7;0.6;;;;;;;18.04;79.97363;942.4849;;;;
2022/07/01 15:44:31;;;;;;;1.3;0.6;;;;;;;18.27;82.4209;942.6249;;;;
2022/07/01 15:46:57;;;;;;;0.9;0.6;;;;;;;17.85;81.1582;942.6448;;;;
2022/07/01 15:49:31;;;;;;;1.7;0.7;;;;;;;18.12;81.30176;942.6516;;;;
2022/07/01 15:51:56;;;;;;;1.1;0.7;;;;;;;17.98;82.40137;942.6183;;;;
2022/07/01 15:54:21;;;;;;;0.9;0.6;;;;;;;17.88;82.45215;942.6968;;;;
2022/07/01 15:56:47;;;;;;;0.6;0.6;;;;;;;18.09;80.75098;942.8292;;;;
2022/07/01 15:59:16;;;;;;;0.7;0.7;;;;;;;18.34;81.44824;942.7965;;;;
2022/07/01 16:01:49;;;;;;;1.6;0.5;;;;;;;18.29;79.43848;942.7286;;;;
2022/07/01 16:04:19;;;;;;;1.1;0.4;;;;;;;18.48;74.03125;942.7852;;;;
2022/07/01 16:06:47;;;;;;;0.7;0.5;;;;;;;18.41;78.13477;942.8971;;;;
2022/07/01 16:09:12;;;;;;;0.8;0.6;;;;;;;18.25;78.82813;942.842;;;;
2022/07/01 16:11:37;;;;;;;0.5;0.5;;;;;;;18.2;79.08594;942.9487;;;;
2022/07/01 16:14:06;;;;;;;1.7;0.7;;;;;;;17.91;80.22949;942.9728;;;;
2022/07/01 16:16:28;;;;;;;1.3;0.8;;;;;;;17.79;80.70703;942.9013;;;;
2022/07/01 16:18:54;;;;;;;2;0.7;;;;;;;18;81.35938;942.9436;;;;
2022/07/01 16:21:20;;;;;;;1.3;0.8;;;;;;;17.82;80.52637;943.0243;;;;
2022/07/01 16:23:44;;;;;;;0.6;0.6;;;;;;;17.64;81.25977;942.9969;;;;
2022/07/01 16:26:10;;;;;;;1.2;0.9;;;;;;;17.54;82.84277;942.9485;;;;
2022/07/01 16:28:38;;;;;;;0.5;0.5;;;;;;;17.4;83.92871;942.9084;;;;
2022/07/01 16:31:03;;;;;;;0.9;0.6;;;;;;;17.35;84.37207;942.9016;;;;
2022/07/01 16:33:30;;;;;;;0.6;0.6;;;;;;;17.46;83.82422;942.9057;;;;
2022/07/01 16:35:55;;;;;;;0.7;0.7;;;;;;;17.6;84.93164;942.9623;;;;
2022/07/01 16:38:25;;;;;;;1.4;1.1;;;;;;;17.66;82.66699;942.954;;;;
2022/07/01 16:40:50;;;;;;;2;0.7;;;;;;;17.75;83.76367;942.9614;;;;
2022/07/01 16:43:15;;;;;;;0.9;0.5;;;;;;;17.69;83.36914;942.8951;;;;
2022/07/01 16:45:42;;;;;;;1;0.7;;;;;;;17.7;82.69922;942.8557;;;;
2022/07/01 16:48:09;;;;;;;0.8;0.4;;;;;;;17.76;81.21289;942.8469;;;;
2022/07/01 16:50:35;;;;;;;1.2;0.5;;;;;;;17.69;81.16504;942.8211;;;;
2022/07/01 16:53:07;;;;;;;0.7;0.4;;;;;;;17.61;79.9082;942.785;;;;
2022/07/01 16:55:36;;;;;;;0.3;0.3;;;;;;;17.58;79.07813;942.7806;;;;
2022/07/01 16:58:01;;;;;;;0.3;0.3;;;;;;;17.6;78.65332;942.8697;;;;
2022/07/01 17:00:27;;;;;;;0.4;0.4;;;;;;;17.56;79.06445;942.7816;;;;
2022/07/01 17:02:53;;;;;;;1.4;0.5;;;;;;;17.62;80.09375;942.8119;;;;
2022/07/01 17:05:22;;;;;;;1.4;0.9;;;;;;;17.36;82.44922;942.8823;;;;
2022/07/01 17:07:47;;;;;;;1.1;0.6;;;;;;;17.44;83.34375;942.8488;;;;
2022/07/01 17:10:19;;;;;;;0.5;0.5;;;;;;;17.37;85.28027;942.9216;;;;
2022/07/01 17:13:18;;;;;;;0.5;0.4;;;;;;;17.53;83.72266;942.918;;;;
2022/07/01 17:15:43;;;;;;;1.3;0.7;;;;;;;17.59;82.75781;942.894;;;;
2022/07/01 17:18:09;;;;;;;0.6;0.6;;;;;;;17.65;84.45313;942.9533;;;;
2022/07/01 17:20:34;;;;;;;0.9;0.9;;;;;;;17.77;82.66406;942.9587;;;;
2022/07/01 17:23:00;;;;;;;0.5;0.5;;;;;;;17.8;82.85547;942.9487;;;;
2022/07/01 17:25:27;;;;;;;1.2;0.5;;;;;;;17.89;81.78027;942.9908;;;;
2022/07/01 17:27:51;;;;;;;2.9;0.7;;;;;;;17.79;82.80859;943.0165;;;;
2022/07/01 17:30:20;;;;;;;0.4;0.4;;;;;;;17.71;81.54004;942.9706;;;;
2022/07/01 17:32:45;;;;;;;0.9;0.8;;;;;;;17.77;81.64453;943.0787;;;;
2022/07/01 17:35:16;;;;;;;1.3;1.1;;;;;;;17.8;82.27637;943.1623;;;;
2022/07/01 17:37:41;;;;;;;0.8;0.7;;;;;;;17.77;82.3623;943.1295;;;;
2022/07/01 17:40:11;;;;;;;0.7;0.7;;;;;;;17.59;83.28027;943.1719;;;;
2022/07/01 17:42:39;;;;;;;1.1;1;;;;;;;17.51;83.98633;943.258;;;;
2022/07/01 17:45:05;;;;;;;1;0.9;;;;;;;17.51;84.12305;943.2757;;;;
2022/07/01 17:47:45;;;;;;;2.1;1;;;;;;;17.36;85.62695;943.193;;;;
2022/07/01 17:50:18;;;;;;;2.1;1;;;;;;;17.31;84.93359;943.2859;;;;
2022/07/01 17:52:43;;;;;;;2.7;1;;;;;;;17.19;86.0918;943.3624;;;;
2022/07/01 17:55:09;;;;;;;1.2;0.8;;;;;;;17.03;87.92578;943.3329;;;;
2022/07/01 17:57:33;;;;;;;2.1;0.9;;;;;;;17.06;88.30176;943.2813;;;;
2022/07/01 17:59:59;;;;;;;1.2;0.7;;;;;;;17.09;88.00586;943.2988;;;;
2022/07/01 18:02:27;;;;;;;0.6;0.5;;;;;;;16.96;88.71094;943.4281;;;;
2022/07/01 18:04:57;;;;;;;1;0.6;;;;;;;16.99;89.2627;943.4375;;;;
2022/07/01 18:07:22;;;;;;;0.6;0.6;;;;;;;16.92;89.95605;943.475;;;;
2022/07/01 18:09:51;;;;;;;1.8;0.6;;;;;;;16.89;90.77148;943.4961;;;;
2022/07/01 18:12:16;;;;;;;1.5;0.5;;;;;;;16.96;90.62207;943.54;;;;
2022/07/01 18:14:41;;;;;;;0.9;0.4;;;;;;;16.76;88.54492;943.5609;;;;
2022/07/01 18:17:06;;;;;;;1.2;0.7;;;;;;;16.62;89.46484;943.5832;;;;
2022/07/01 18:19:31;;;;;;;0.8;0.6;;;;;;;16.62;90.40332;943.6392;;;;
2022/07/01 18:21:57;;;;;;;0.6;0.6;;;;;;;16.66;90.07422;943.7117;;;;
2022/07/01 18:24:22;;;;;;;1.3;0.5;;;;;;;16.65;90.28125;943.6731;;;;
2022/07/01 18:26:47;;;;;;;0.6;0.6;;;;;;;16.54;90.85156;943.7249;;;;
2022/07/01 18:29:17;;;;;;;0.9;0.8;;;;;;;16.65;90.41992;943.7213;;;;
2022/07/01 18:31:42;;;;;;;0.6;0.6;;;;;;;16.66;88.73145;943.6956;;;;
2022/07/01 18:34:08;;;;;;;0.7;0.7;;;;;;;16.65;87.89551;943.6819;;;;
2022/07/01 18:36:34;;;;;;;1.2;0.7;;;;;;;16.7;87.94141;943.7247;;;;
2022/07/01 18:38:59;;;;;;;1.3;0.5;;;;;;;16.73;87.50684;943.7188;;;;
2022/07/01 18:41:29;;;;;;;0.7;0.6;;;;;;;16.58;88.46191;943.715;;;;
2022/07/01 18:43:53;;;;;;;0.7;0.7;;;;;;;16.57;88.78223;943.6958;;;;
2022/07/01 18:46:21;;;;;;;1;0.8;;;;;;;16.58;89.45801;943.7697;;;;
2022/07/01 18:48:52;;;;;;;1.8;0.5;;;;;;;16.64;89.78125;943.736;;;;
2022/07/01 18:51:21;;;;;;;0.6;0.6;;;;;;;16.43;91.12793;943.7317;;;;
2022/07/01 18:53:47;;;;;;;3.5;0.8;;;;;;;16.32;91.48535;943.7101;;;;
2022/07/01 18:56:17;;;;;;;0.5;0.5;;;;;;;16.29;90.86621;943.7264;;;;
2022/07/01 18:58:42;;;;;;;0.6;0.6;;;;;;;16.27;90.17969;943.7321;;;;
2022/07/01 19:01:09;;;;;;;0.6;0.6;;;;;;;16.26;90.55957;943.7611;;;;
2022/07/01 19:03:37;;;;;;;0.7;0.7;;;;;;;16.24;90.2207;943.7877;;;;
2022/07/01 19:05:59;;;;;;;0.9;0.8;;;;;;;16.13;91.03125;943.7717;;;;
2022/07/01 19:08:27;;;;;;;0.6;0.6;;;;;;;16.18;90.23242;943.7859;;;;
2022/07/01 19:10:53;;;;;;;1.1;1;;;;;;;16.2;90.46582;943.7481;;;;
2022/07/01 19:13:20;;;;;;;0.8;0.8;;;;;;;16.25;90.52539;943.835;;;;
2022/07/01 19:15:56;;;;;;;1.3;0.8;;;;;;;16.29;90.00977;943.8405;;;;
2022/07/01 19:18:21;;;;;;;1.1;0.9;;;;;;;16.19;90.51074;943.8808;;;;
2022/07/01 19:20:46;;;;;;;1;0.9;;;;;;;16.24;92.19922;943.8937;;;;
2022/07/01 19:23:17;;;;;;;0.9;0.7;;;;;;;16.12;92.34766;943.9099;;;;
2022/07/01 19:25:45;;;;;;;1.1;1;;;;;;;16.06;92.64648;943.8627;;;;
2022/07/01 19:28:10;;;;;;;1.8;0.6;;;;;;;16.08;92.66406;943.9686;;;;
2022/07/01 19:30:39;;;;;;;1.7;0.7;;;;;;;16.09;92.72363;943.9839;;;;
2022/07/01 19:33:03;;;;;;;1.3;0.8;;;;;;;16.02;93.06445;944.0114;;;;
2022/07/01 19:35:29;;;;;;;0.8;0.8;;;;;;;15.93;92.97656;944.0691;;;;
2022/07/01 19:38:00;;;;;;;4.9;1.9;;;;;;;15.9;92.72754;944.0675;;;;
2022/07/01 19:40:31;;;;;;;1.4;1.3;;;;;;;15.88;92.31934;944.0451;;;;
2022/07/01 19:43:04;;;;;;;3.1;1.6;;;;;;;15.87;92.58301;944.123;;;;
2022/07/01 19:45:28;;;;;;;2.1;1.1;;;;;;;15.86;92.30371;944.1552;;;;
2022/07/01 19:47:56;;;;;;;1.3;1.2;;;;;;;15.83;92.18262;944.168;;;;
2022/07/01 19:50:22;;;;;;;3;1.2;;;;;;;15.85;92.37109;944.2034;;;;
2022/07/01 19:52:51;;;;;;;1.9;1;;;;;;;15.89;92.50586;944.188;;;;
2022/07/01 19:55:20;;;;;;;1;0.9;;;;;;;15.92;91.90137;944.2651;;;;
2022/07/01 19:57:45;;;;;;;2.2;0.7;;;;;;;15.72;91.81348;944.2698;;;;
2022/07/01 20:00:17;;;;;;;1.2;1.1;;;;;;;15.8;91.77246;944.2561;;;;
2022/07/01 20:02:50;;;;;;;1.9;0.9;;;;;;;15.64;91.56543;944.3125;;;;
2022/07/01 20:05:15;;;;;;;0.9;0.7;;;;;;;15.72;92.04395;944.3188;;;;
2022/07/01 20:07:44;;;;;;;0.8;0.8;;;;;;;15.73;92.28711;944.3622;;;;
2022/07/01 20:10:18;;;;;;;1.3;1.2;;;;;;;15.72;92.32129;944.371;;;;
2022/07/01 20:12:50;;;;;;;2.5;1.5;;;;;;;15.63;92.26758;944.3847;;;;
2022/07/01 20:15:12;;;;;;;1.5;0.9;;;;;;;15.57;92.6709;944.4106;;;;
2022/07/01 20:17:46;;;;;;;1.9;1.7;;;;;;;15.44;93.01367;944.4242;;;;
2022/07/01 20:20:19;;;;;;;1.8;1.7;;;;;;;15.44;93.05957;944.4748;;;;
2022/07/01 20:22:48;;;;;;;1.4;1.2;;;;;;;15.37;93.30957;944.4109;;;;
2022/07/01 20:25:13;;;;;;;1.8;1.3;;;;;;;15.39;93.42871;944.4551;;;;
2022/07/01 20:27:44;;;;;;;1.7;1.3;;;;;;;15.44;93.62305;944.4041;;;;
2022/07/01 20:30:17;;;;;;;0.8;0.8;;;;;;;15.35;94.81641;944.4294;;;;
2022/07/01 20:32:47;;;;;;;0.7;0.7;;;;;;;15.3;95.19922;944.3981;;;;
2022/07/01 20:35:20;;;;;;;1.7;1.1;;;;;;;15.43;94.61621;944.425;;;;
2022/07/01 20:37:44;;;;;;;1.1;0.7;;;;;;;15.52;94.16211;944.4306;;;;
2022/07/01 20:40:18;;;;;;;1;0.8;;;;;;;15.55;93.96973;944.3769;;;;
2022/07/01 20:42:42;;;;;;;1.4;1.2;;;;;;;15.57;92.95898;944.4242;;;;
2022/07/01 20:45:15;;;;;;;3.2;1.5;;;;;;;15.59;92.74316;944.4166;;;;
2022/07/01 20:47:46;;;;;;;1.6;1.4;;;;;;;15.62;92.78418;944.5637;;;;
2022/07/01 20:50:19;;;;;;;2.2;1.1;;;;;;;15.58;93.59668;944.5535;;;;
2022/07/01 20:52:47;;;;;;;1.5;1.1;;;;;;;15.64;93.37891;944.5645;;;;
2022/07/01 20:55:13;;;;;;;0.9;0.9;;;;;;;15.69;93.25;944.6024;;;;
2022/07/01 20:57:45;;;;;;;1.1;1;;;;;;;15.67;93.60449;944.5773;;;;
2022/07/01 21:00:18;;;;;;;1.3;1.2;;;;;;;15.66;93.62305;944.6183;;;;
2022/07/01 21:02:51;;;;;;;0.8;0.8;;;;;;;15.59;94.17383;944.6501;;;;
2022/07/01 21:05:17;;;;;;;1.4;1.2;;;;;;;15.48;94.83398;944.608;;;;
2022/07/01 21:07:42;;;;;;;1;1;;;;;;;15.42;95.06445;944.6232;;;;
2022/07/01 21:10:16;;;;;;;1.1;1;;;;;;;15.32;95.22559;944.6204;;;;
2022/07/01 21:12:46;;;;;;;1;0.9;;;;;;;15.3;95.42773;944.5979;;;;
2022/07/01 21:15:12;;;;;;;2.3;1;;;;;;;15.2;95.4541;944.5653;;;;
2022/07/01 21:17:36;;;;;;;0.8;0.8;;;;;;;15.22;95.43555;944.5215;;;;
2022/07/01 21:20:04;;;;;;;1.3;1;;;;;;;15.23;95.125;944.5385;;;;
2022/07/01 21:22:30;;;;;;;1;1;;;;;;;15.28;95.04492;944.5658;;;;
2022/07/01 21:24:58;;;;;;;1.3;0.8;;;;;;;15.25;94.91016;944.5641;;;;
2022/07/01 21:27:23;;;;;;;1.5;1;;;;;;;15.28;94.90625;944.5811;;;;
2022/07/01 21:29:53;;;;;;;1.4;1;;;;;;;15.36;94.28906;944.5506;;;;
2022/07/01 21:32:18;;;;;;;3;1.2;;;;;;;15.41;94.34473;944.5218;;;;
2022/07/01 21:34:46;;;;;;;2.1;1.2;;;;;;;15.47;94.58789;944.5751;;;;
2022/07/01 21:37:11;;;;;;;1.2;1.1;;;;;;;15.52;94.37988;944.5317;;;;
2022/07/01 21:39:42;;;;;;;1.2;1.1;;;;;;;15.53;94.57813;944.5904;;;;
2022/07/01 21:42:13;;;;;;;1.1;1;;;;;;;15.43;94.82227;944.5638;;;;
2022/07/01 21:44:38;;;;;;;1.4;1.2;;;;;;;15.4;95.625;944.5956;;;;
2022/07/01 21:47:09;;;;;;;3.3;1.5;;;;;;;15.44;95.33398;944.6049;;;;
2022/07/01 21:49:35;;;;;;;2.7;1.4;;;;;;;15.51;95.05957;944.6016;;;;
2022/07/01 21:52:00;;;;;;;1.4;1.2;;;;;;;15.52;94.77246;944.6136;;;;
2022/07/01 21:54:25;;;;;;;1.3;1.2;;;;;;;15.48;94.78613;944.608;;;;
2022/07/01 21:56:53;;;;;;;1.7;1;;;;;;;15.44;94.92773;944.543;;;;
2022/07/01 21:59:18;;;;;;;1.2;1.1;;;;;;;15.38;94.9834;944.5867;;;;
2022/07/01 22:01:48;;;;;;;1.2;1.1;;;;;;;15.22;95.27344;944.5248;;;;
2022/07/01 22:04:18;;;;;;;1.1;1;;;;;;;15.12;95.69043;944.5339;;;;
2022/07/01 22:06:53;;;;;;;1;0.9;;;;;;;15.05;95.61719;944.4953;;;;
2022/07/01 22:09:12;;;;;;;1.1;0.9;;;;;;;14.93;95.95996;944.4906;;;;
2022/07/01 22:11:37;;;;;;;0.8;0.8;;;;;;;14.9;95.75781;944.4489;;;;
2022/07/01 22:14:02;;;;;;;0.8;0.8;;;;;;;14.85;95.98633;944.5201;;;;
2022/07/01 22:16:27;;;;;;;2.1;0.9;;;;;;;14.75;96.16309;944.5316;;;;
2022/07/01 22:18:57;;;;;;;1.3;0.9;;;;;;;14.61;96.8916;944.4995;;;;
2022/07/01 22:21:22;;;;;;;1.1;1;;;;;;;14.61;96.76465;944.5539;;;;
2022/07/01 22:23:49;;;;;;;1;0.9;;;;;;;14.67;96.42383;944.5433;;;;
2022/07/01 22:26:14;;;;;;;2.6;1.2;;;;;;;14.72;95.94922;944.5146;;;;
2022/07/01 22:28:40;;;;;;;1.1;1;;;;;;;14.73;95.0293;944.5467;;;;
2022/07/01 22:31:05;;;;;;;1.5;1;;;;;;;14.76;94.48145;944.5339;;;;
2022/07/01 22:33:30;;;;;;;1.2;1.1;;;;;;;14.5;96.40625;944.6064;;;;
2022/07/01 22:35:55;;;;;;;2;1;;;;;;;14.34;97.39746;944.5625;;;;
2022/07/01 22:38:22;;;;;;;1.2;1.1;;;;;;;14.35;97.30762;944.6275;;;;
2022/07/01 22:40:47;;;;;;;1.2;1.1;;;;;;;14.25;97.76953;944.663;;;;
2022/07/01 22:43:15;;;;;;;1.2;1.1;;;;;;;14.32;97.85254;944.6241;;;;
2022/07/01 22:45:40;;;;;;;1.2;1.1;;;;;;;14.37;97.52832;944.6379;;;;
2022/07/01 22:48:10;;;;;;;3.4;1.2;;;;;;;14.35;96.92578;944.5754;;;;
2022/07/01 22:50:36;;;;;;;3.4;1.5;;;;;;;14.4;96.60547;944.5717;;;;
2022/07/01 22:53:01;;;;;;;2.7;1.4;;;;;;;14.33;96.71387;944.6955;;;;
2022/07/01 22:55:26;;;;;;;1.8;1.6;;;;;;;14.18;97.99512;944.6872;;;;
2022/07/01 22:57:51;;;;;;;1.5;1.4;;;;;;;14.12;98.52344;944.6252;;;;
2022/07/01 23:00:20;;;;;;;1.9;1.5;;;;;;;14.18;98.38574;944.6752;;;;
2022/07/01 23:02:50;;;;;;;3.9;1.8;;;;;;;14.1;99.26563;944.7028;;;;
2022/07/01 23:05:36;;;;;;;5;2.1;;;;;;;14.15;99.50879;944.7214;;;;
2022/07/01 23:08:18;;;;;;;2.3;1.9;;;;;;;14.08;99.92969;944.7314;;;;
2022/07/01 23:10:59;;;;;;;2.6;2.1;;;;;;;14.12;100;944.6804;;;;
2022/07/01 23:13:36;;;;;;;2;1.9;;;;;;;14.18;99.92871;944.6527;;;;
2022/07/01 23:16:28;;;;;;;4.6;2.1;;;;;;;14.21;99.59961;944.6216;;;;
2022/07/01 23:18:40;;;;;;;2.6;1.9;;;;;;;14.18;99.38574;944.6214;;;;
2022/07/01 23:21:17;;;;;;;1.8;1.6;;;;;;;14.24;98.98535;944.5717;;;;
2022/07/01 23:23:56;;;;;;;2.4;1.8;;;;;;;14.22;98.50977;944.5748;;;;
2022/07/01 23:26:34;;;;;;;2;1.4;;;;;;;14.14;98.78125;944.5868;;;;
2022/07/01 23:28:59;;;;;;;1.4;1.3;;;;;;;14.12;98.11914;944.5675;;;;
2022/07/01 23:31:31;;;;;;;1.5;1.4;;;;;;;14.08;97.46582;944.5472;;;;
2022/07/01 23:33:56;;;;;;;2;1.5;;;;;;;14.03;97.63574;944.5829;;;;
2022/07/01 23:36:21;;;;;;;2.6;1.5;;;;;;;14.06;97.34473;944.5943;;;;
2022/07/01 23:38:49;;;;;;;1.5;1.4;;;;;;;13.99;97.05664;944.5648;;;;
2022/07/01 23:41:17;;;;;;;1.3;1.2;;;;;;;14.01;96.98926;944.5729;;;;
2022/07/01 23:43:39;;;;;;;1.3;1.2;;;;;;;14;96.91797;944.5728;;;;
2022/07/01 23:46:09;;;;;;;1.4;1.3;;;;;;;13.94;97.00977;944.558;;;;
2022/07/01 23:48:38;;;;;;;1.4;1.3;;;;;;;13.87;97.19922;944.5447;;;;
2022/07/01 23:51:05;;;;;;;1.4;1.3;;;;;;;13.79;97.01953;944.5375;;;;
2022/07/01 23:53:32;;;;;;;2.3;1.4;;;;;;;13.69;97.77051;944.5457;;;;
2022/07/01 23:55:58;;;;;;;2.7;1.7;;;;;;;13.71;97.55566;944.4753;;;;
2022/07/01 23:58:24;;;;;;;1.2;1.1;;;;;;;13.67;97.43066;944.5399;;;;
